TAF KANB
KANB 072337Z 0800/0824 VRB03KT P6SM OVC025 FM080300 VRB03KT P6SM VCSH OVC015 FM081100 VRB04KT 5SM SHRA BR OVC006 FM081600 33006KT P6SM BKN009 FM082100 34005KT P6SM FEW250=
METAR KANB
WC KANB
WS KANB
WV KANB